Decoded Metar for EPLB ( in ) (IATA:) | Meteo·Mobile Aviation Weather
aviador You're here:

EPLB Decoded Metar

in
Report Time2018-10-17 19:30:00
UTC Time2018-10-17 20:05:15
Flight Rules vfr VFR
Wind070° at 01 kt
W.Rank070° ranks 12
Current wind is below 070° avg. (6.1)
Visibility8000 m
Phenomena:N/A
Clouds:N/A
Expected CloudBase > 400 ft AGL from Temp-Dew spread
CeilingNone
Temp08°C
Dew Point07°C (93% RH)
AAT6.9°C
QNH1022 hPa
Raw Report
EPLB 171930Z 07001KT 8000 NSC 08/07 Q1022=

Extra information for EPLB:More info

Social comments